createdAt,value
2022-12-18T00:00:12.069Z,86.57
2022-12-18T00:02:40.348Z,85.91
2022-12-18T00:05:10.690Z,85.99
2022-12-18T00:07:39.275Z,86.22
2022-12-18T00:10:09.686Z,86.59
2022-12-18T00:12:37.979Z,86.21
2022-12-18T00:15:07.227Z,86.16
2022-12-18T00:17:35.447Z,86.17
2022-12-18T00:20:03.872Z,86.26
2022-12-18T00:22:33.434Z,86.27
2022-12-18T00:25:01.705Z,86.57
2022-12-18T00:27:29.948Z,86.48
2022-12-18T00:29:58.229Z,86.11
2022-12-18T00:32:26.472Z,86.47
2022-12-18T00:34:54.704Z,86.67
2022-12-18T00:37:23.593Z,86.49
2022-12-18T00:39:53.204Z,86.55
2022-12-18T00:42:39.088Z,86.81
2022-12-18T00:45:12.710Z,86.84
2022-12-18T00:47:42.074Z,86.46
2022-12-18T00:50:11.688Z,86.75
2022-12-18T00:52:39.919Z,87.09
2022-12-18T00:55:10.347Z,86.43
2022-12-18T00:57:39.634Z,86.25
2022-12-18T01:00:12.416Z,86.20
2022-12-18T01:02:41.287Z,86.73
2022-12-18T01:05:10.974Z,86.16
2022-12-18T01:07:39.246Z,86.35
2022-12-18T01:10:11.907Z,86.15
2022-12-18T01:12:40.532Z,86.79
2022-12-18T01:15:10.922Z,86.86
2022-12-18T01:17:39.253Z,86.03
2022-12-18T01:20:09.514Z,86.00
2022-12-18T01:22:37.863Z,86.32
2022-12-18T01:25:07.596Z,86.50
2022-12-18T01:27:37.171Z,86.71
2022-12-18T01:30:06.908Z,86.48
2022-12-18T01:32:35.583Z,86.50
2022-12-18T01:35:04.773Z,86.32
2022-12-18T01:37:33.004Z,86.76
2022-12-18T01:40:01.320Z,86.18
2022-12-18T01:42:29.530Z,86.11
2022-12-18T01:45:05.481Z,86.67
2022-12-18T01:47:40.362Z,86.65
2022-12-18T01:50:13.395Z,86.68
2022-12-18T01:52:45.161Z,86.91
2022-12-18T01:55:16.053Z,86.76
2022-12-18T01:57:44.713Z,86.13
2022-12-18T02:00:19.600Z,86.19
2022-12-18T02:02:50.585Z,86.86
2022-12-18T02:05:24.398Z,86.50
2022-12-18T02:08:05.232Z,86.95
2022-12-18T02:10:41.343Z,86.91
2022-12-18T02:13:16.539Z,86.97
2022-12-18T02:15:53.703Z,86.65
2022-12-18T02:18:26.434Z,86.86
2022-12-18T02:21:01.939Z,86.55
2022-12-18T02:23:49.789Z,86.93
2022-12-18T02:26:23.347Z,86.47
2022-12-18T02:28:57.563Z,86.10
2022-12-18T02:31:29.717Z,86.91
2022-12-18T02:34:02.577Z,86.89
2022-12-18T02:36:31.980Z,86.35
2022-12-18T02:39:01.438Z,86.85
2022-12-18T02:41:32.292Z,86.82
2022-12-18T02:44:04.271Z,86.71
2022-12-18T02:46:36.721Z,86.38
2022-12-18T02:49:17.009Z,86.71
2022-12-18T02:51:55.458Z,86.46
2022-12-18T02:54:54.525Z,86.40
2022-12-18T02:57:32.605Z,86.88
2022-12-18T03:00:06.926Z,86.96
2022-12-18T03:02:41.904Z,86.81
2022-12-18T03:05:15.891Z,87.07
2022-12-18T03:07:49.799Z,86.42
2022-12-18T03:10:24.101Z,87.05
2022-12-18T03:13:00.587Z,86.88
2022-12-18T03:15:32.922Z,86.90
2022-12-18T03:18:09.924Z,86.95
2022-12-18T03:20:42.245Z,86.82
2022-12-18T03:23:18.388Z,86.85
2022-12-18T03:25:48.395Z,87.05
2022-12-18T03:28:22.737Z,87.07
2022-12-18T03:30:58.539Z,86.81
2022-12-18T03:33:31.518Z,87.07
2022-12-18T03:35:59.788Z,86.34
2022-12-18T03:38:28.101Z,86.86
2022-12-18T03:41:02.915Z,86.75
2022-12-18T03:43:44.238Z,86.77
2022-12-18T03:46:22.446Z,86.76
2022-12-18T03:48:58.248Z,86.84
2022-12-18T03:51:30.737Z,86.71
2022-12-18T03:54:04.884Z,86.81
2022-12-18T03:56:39.593Z,86.80
2022-12-18T03:59:11.995Z,86.86
2022-12-18T04:01:45.193Z,87.12
2022-12-18T04:04:15.193Z,87.02
2022-12-18T04:06:46.056Z,86.94
2022-12-18T04:09:15.264Z,87.03
2022-12-18T04:11:44.789Z,86.86
2022-12-18T04:14:17.914Z,86.90
2022-12-18T04:16:46.807Z,86.89
2022-12-18T04:19:15.154Z,86.80
2022-12-18T04:21:43.714Z,86.84
2022-12-18T04:24:11.950Z,86.77
2022-12-18T04:26:40.439Z,87.15
2022-12-18T04:29:08.655Z,86.98
2022-12-18T04:31:38.750Z,87.09
2022-12-18T04:34:07.166Z,87.30
2022-12-18T04:36:35.513Z,86.53
2022-12-18T04:39:03.739Z,86.87
2022-12-18T04:41:31.959Z,87.12
2022-12-18T04:44:00.184Z,86.89
2022-12-18T04:46:28.419Z,86.94
2022-12-18T04:48:58.090Z,86.83
2022-12-18T04:51:26.975Z,86.67
2022-12-18T04:53:55.553Z,86.58
2022-12-18T04:56:23.793Z,86.56
2022-12-18T04:58:52.088Z,86.45
2022-12-18T05:01:21.102Z,86.92
2022-12-18T05:03:49.687Z,86.62
2022-12-18T05:06:19.546Z,86.81
2022-12-18T05:08:47.822Z,86.57
2022-12-18T05:11:17.670Z,86.80
2022-12-18T05:13:47.063Z,86.79
2022-12-18T05:16:16.218Z,86.89
2022-12-18T05:18:44.833Z,86.68
2022-12-18T05:21:13.088Z,86.94
2022-12-18T05:23:43.273Z,86.70
2022-12-18T05:26:17.255Z,86.51
2022-12-18T05:28:45.898Z,86.79
2022-12-18T05:31:14.601Z,86.73
2022-12-18T05:33:43.680Z,86.59
2022-12-18T05:36:13.211Z,86.75
2022-12-18T05:38:43.010Z,86.83
2022-12-18T05:41:11.899Z,86.76
2022-12-18T05:43:42.501Z,86.68
2022-12-18T05:46:16.361Z,86.72
2022-12-18T05:48:44.879Z,86.67
2022-12-18T05:51:17.633Z,86.49
2022-12-18T05:53:47.829Z,86.54
2022-12-18T05:56:19.045Z,86.71
2022-12-18T05:58:48.162Z,86.84
2022-12-18T06:01:20.006Z,86.75
2022-12-18T06:03:48.611Z,86.74
2022-12-18T06:06:18.736Z,86.67
2022-12-18T06:08:49.163Z,87.00
2022-12-18T06:11:21.807Z,86.67
2022-12-18T06:13:57.802Z,86.68
2022-12-18T06:16:28.731Z,86.68
2022-12-18T06:18:59.125Z,86.55
2022-12-18T06:21:28.449Z,86.78
2022-12-18T06:23:58.191Z,86.95
2022-12-18T06:26:28.473Z,86.77
2022-12-18T06:28:57.001Z,86.41
2022-12-18T06:31:28.190Z,86.96
2022-12-18T06:33:58.745Z,86.72
2022-12-18T06:36:27.038Z,87.25
2022-12-18T06:38:55.309Z,86.83
2022-12-18T06:41:25.418Z,86.88
2022-12-18T06:43:58.149Z,86.88
2022-12-18T06:46:28.244Z,86.86
2022-12-18T06:48:57.088Z,87.03
2022-12-18T06:51:26.400Z,86.82
2022-12-18T06:53:54.649Z,86.98
2022-12-18T06:56:24.483Z,87.14
2022-12-18T06:58:52.737Z,86.85
2022-12-18T07:01:21.192Z,86.82
2022-12-18T07:03:54.080Z,86.91
2022-12-18T07:06:24.756Z,87.00
2022-12-18T07:08:54.277Z,86.97
2022-12-18T07:11:23.905Z,87.55
2022-12-18T07:13:52.213Z,86.78
2022-12-18T07:16:25.503Z,86.99
2022-12-18T07:18:54.484Z,86.84
2022-12-18T07:21:23.657Z,86.86
2022-12-18T07:23:52.369Z,87.31
2022-12-18T07:26:22.570Z,87.09
2022-12-18T07:28:52.719Z,87.06
2022-12-18T07:31:23.674Z,86.79
2022-12-18T07:33:52.753Z,86.85
2022-12-18T07:36:21.634Z,87.03
2022-12-18T07:38:52.517Z,87.15
2022-12-18T07:41:21.240Z,87.08
2022-12-18T07:43:52.304Z,87.33
2022-12-18T07:46:21.611Z,87.30
2022-12-18T07:48:50.484Z,87.02
2022-12-18T07:51:20.178Z,87.02
2022-12-18T07:53:49.439Z,87.06
2022-12-18T07:56:27.700Z,87.29
2022-12-18T07:58:58.792Z,87.10
2022-12-18T08:01:27.242Z,87.10
2022-12-18T08:03:55.653Z,87.23
2022-12-18T08:06:24.771Z,87.39
2022-12-18T08:08:54.792Z,87.38
2022-12-18T08:11:24.260Z,87.10
2022-12-18T08:13:52.979Z,87.54
2022-12-18T08:16:23.825Z,87.28
2022-12-18T08:18:54.288Z,87.39
2022-12-18T08:21:25.831Z,87.34
2022-12-18T08:23:56.220Z,87.27
2022-12-18T08:26:25.801Z,87.23
2022-12-18T08:28:55.817Z,87.31
2022-12-18T08:31:26.687Z,87.35
2022-12-18T08:33:55.665Z,87.61
2022-12-18T08:36:25.567Z,87.32
2022-12-18T08:38:55.223Z,87.40
2022-12-18T08:41:24.036Z,87.18
2022-12-18T08:44:10.105Z,86.88
2022-12-18T08:46:42.017Z,87.29
2022-12-18T08:49:12.116Z,87.15
2022-12-18T08:51:41.223Z,87.38
2022-12-18T08:54:11.053Z,87.32
2022-12-18T08:56:39.373Z,87.36
2022-12-18T08:59:07.595Z,87.13
2022-12-18T09:01:35.952Z,87.61
2022-12-18T09:04:06.130Z,87.14
2022-12-18T09:06:35.663Z,87.42
2022-12-18T09:09:05.602Z,87.57
2022-12-18T09:11:34.915Z,87.42
2022-12-18T09:14:03.987Z,87.36
2022-12-18T09:16:35.894Z,87.21
2022-12-18T09:19:07.350Z,87.33
2022-12-18T09:21:37.576Z,87.50
2022-12-18T09:24:08.864Z,87.77
2022-12-18T09:26:38.133Z,87.15
2022-12-18T09:29:09.122Z,87.55
2022-12-18T09:31:38.537Z,87.76
2022-12-18T09:34:08.325Z,87.50
2022-12-18T09:36:36.769Z,86.94
2022-12-18T09:39:08.573Z,87.08
2022-12-18T09:41:46.719Z,87.41
2022-12-18T09:44:26.507Z,87.41
2022-12-18T09:47:06.990Z,87.13
2022-12-18T09:49:43.429Z,87.39
2022-12-18T09:52:18.539Z,87.10
2022-12-18T09:54:52.323Z,86.68
2022-12-18T09:57:25.582Z,86.99
2022-12-18T09:59:59.242Z,87.17
2022-12-18T10:02:29.060Z,87.22
2022-12-18T10:05:07.647Z,87.27
2022-12-18T10:07:54.592Z,87.17
2022-12-18T10:10:34.748Z,87.12
2022-12-18T10:13:14.821Z,86.73
2022-12-18T10:15:57.151Z,87.23
2022-12-18T10:18:47.181Z,87.11
2022-12-18T10:21:26.540Z,86.61
2022-12-18T10:24:05.041Z,87.19
2022-12-18T10:26:35.031Z,86.54
2022-12-18T10:29:05.834Z,86.91
2022-12-18T10:31:34.224Z,86.52
2022-12-18T10:34:02.656Z,86.66
2022-12-18T10:36:32.494Z,86.49
2022-12-18T10:39:18.409Z,86.13
2022-12-18T10:41:47.269Z,86.47
2022-12-18T10:44:21.845Z,86.68
2022-12-18T10:46:53.795Z,86.29
2022-12-18T10:49:25.853Z,86.86
2022-12-18T10:52:17.061Z,86.05
2022-12-18T10:54:52.230Z,85.95
2022-12-18T10:57:34.542Z,86.42
2022-12-18T11:00:27.155Z,85.85
2022-12-18T11:02:56.729Z,85.88
2022-12-18T11:05:32.100Z,85.70
2022-12-18T11:08:05.470Z,86.25
2022-12-18T11:10:36.286Z,85.86
2022-12-18T11:13:18.096Z,86.14
2022-12-18T11:15:47.154Z,85.22
2022-12-18T11:18:27.256Z,85.81
2022-12-18T11:20:59.072Z,85.85
2022-12-18T11:23:29.904Z,85.61
2022-12-18T11:26:04.847Z,85.58
2022-12-18T11:28:46.147Z,85.63
2022-12-18T11:31:29.558Z,85.34
2022-12-18T11:36:55.610Z,85.04
2022-12-18T11:39:34.007Z,84.95
2022-12-18T11:42:11.014Z,85.20
2022-12-18T11:44:48.265Z,84.89
2022-12-18T11:47:29.350Z,84.70
2022-12-18T11:50:02.330Z,84.65
2022-12-18T11:52:39.016Z,84.44
2022-12-18T11:55:16.142Z,84.28
2022-12-18T11:57:54.171Z,84.30
2022-12-18T12:00:24.323Z,84.58
2022-12-18T12:03:55.712Z,84.13
2022-12-18T12:06:34.561Z,84.22
2022-12-18T12:09:15.084Z,84.05
2022-12-18T12:11:55.373Z,83.91
2022-12-18T12:14:44.287Z,83.88
2022-12-18T12:17:23.282Z,83.90
2022-12-18T12:20:03.975Z,83.83
2022-12-18T12:22:45.265Z,83.22
2022-12-18T12:25:31.140Z,83.34
2022-12-18T12:28:17.013Z,83.22
2022-12-18T12:30:57.990Z,83.22
2022-12-18T12:33:39.495Z,82.97
2022-12-18T12:36:19.265Z,82.88
2022-12-18T12:38:52.726Z,82.78
2022-12-18T12:41:43.243Z,82.67
2022-12-18T12:44:22.724Z,82.87
2022-12-18T12:46:55.363Z,82.36
2022-12-18T12:49:29.021Z,82.30
2022-12-18T12:52:08.336Z,82.08
2022-12-18T12:54:37.541Z,81.83
2022-12-18T12:57:15.559Z,81.75
2022-12-18T12:59:54.439Z,81.45
2022-12-18T13:02:33.499Z,81.41
2022-12-18T13:05:12.075Z,81.17
2022-12-18T13:07:44.315Z,80.94
2022-12-18T13:10:35.280Z,80.78
2022-12-18T13:13:05.764Z,80.31
2022-12-18T13:15:41.774Z,80.48
2022-12-18T13:18:23.605Z,80.77
2022-12-18T13:21:04.689Z,80.07
2022-12-18T13:23:38.075Z,80.04
2022-12-18T13:26:34.062Z,79.76
2022-12-18T13:29:05.216Z,79.74
2022-12-18T13:32:24.715Z,79.92
2022-12-18T13:35:39.702Z,79.99
2022-12-18T13:38:24.273Z,79.72
2022-12-18T13:41:00.663Z,79.21
2022-12-18T13:43:38.592Z,79.08
2022-12-18T13:46:21.888Z,79.00
2022-12-18T13:49:03.687Z,78.89
2022-12-18T13:51:35.338Z,78.71
2022-12-18T13:54:08.611Z,78.62
2022-12-18T13:56:45.722Z,78.62
2022-12-18T13:59:25.102Z,77.96
2022-12-18T14:01:57.278Z,77.85
2022-12-18T14:04:30.273Z,78.05
2022-12-18T14:07:04.709Z,77.87
2022-12-18T14:09:37.643Z,77.85
2022-12-18T14:12:26.345Z,77.76
2022-12-18T14:14:55.856Z,77.58
2022-12-18T14:17:25.654Z,77.73
2022-12-18T14:19:56.050Z,77.47
2022-12-18T14:22:30.511Z,77.85
2022-12-18T14:25:18.919Z,77.60
2022-12-18T14:27:49.534Z,77.61
2022-12-18T14:30:34.132Z,77.82
2022-12-18T14:33:11.455Z,77.41
2022-12-18T14:35:43.630Z,77.59
2022-12-18T14:38:22.192Z,77.67
2022-12-18T14:40:54.531Z,77.45
2022-12-18T14:43:23.320Z,77.70
2022-12-18T14:45:52.554Z,77.27
2022-12-18T14:48:24.323Z,77.45
2022-12-18T14:51:05.828Z,77.48
2022-12-18T14:53:41.881Z,77.05
2022-12-18T14:56:20.123Z,77.74
2022-12-18T14:58:51.211Z,77.50
2022-12-18T15:01:26.299Z,77.20
2022-12-18T15:03:56.357Z,77.45
2022-12-18T15:06:32.585Z,77.37
2022-12-18T15:09:02.631Z,77.44
2022-12-18T15:11:38.593Z,77.58
2022-12-18T15:14:33.734Z,77.30
2022-12-18T15:17:05.603Z,77.56
2022-12-18T15:19:42.215Z,77.38
2022-12-18T15:22:24.445Z,77.67
2022-12-18T15:24:53.251Z,77.57
2022-12-18T15:27:35.937Z,77.76
2022-12-18T15:30:24.754Z,77.10
2022-12-18T15:32:55.005Z,77.29
2022-12-18T15:35:25.809Z,77.66
2022-12-18T15:37:55.741Z,77.46
2022-12-18T15:40:26.248Z,77.69
2022-12-18T15:43:16.080Z,77.72
2022-12-18T15:45:44.318Z,77.80
2022-12-18T15:48:22.637Z,77.65
2022-12-18T15:50:52.941Z,77.50
2022-12-18T15:53:22.967Z,77.71
2022-12-18T15:56:08.929Z,77.71
2022-12-18T15:58:37.273Z,77.80
2022-12-18T16:01:07.434Z,77.61
2022-12-18T16:03:38.625Z,77.66
2022-12-18T16:06:08.042Z,78.00
2022-12-18T16:08:38.583Z,77.83
2022-12-18T16:11:38.843Z,77.69
2022-12-18T16:14:15.080Z,77.72
2022-12-18T16:16:44.647Z,77.93
2022-12-18T16:19:13.235Z,77.95
2022-12-18T16:21:41.936Z,77.82
2022-12-18T16:24:18.041Z,78.06
2022-12-18T16:26:46.583Z,77.78
2022-12-18T16:29:14.809Z,77.78
2022-12-18T16:31:44.057Z,77.86
2022-12-18T16:34:17.393Z,77.65
2022-12-18T16:36:45.652Z,77.67
2022-12-18T16:39:15.258Z,77.92
2022-12-18T16:41:43.627Z,77.94
2022-12-18T16:44:12.187Z,77.78
2022-12-18T16:46:43.219Z,77.53
2022-12-18T16:49:12.236Z,77.54
2022-12-18T16:51:40.661Z,77.73
2022-12-18T16:54:11.659Z,77.90
2022-12-18T16:56:42.863Z,77.74
2022-12-18T16:59:13.901Z,77.62
2022-12-18T17:01:42.731Z,77.86
2022-12-18T17:04:11.358Z,77.63
2022-12-18T17:06:43.960Z,77.41
2022-12-18T17:09:15.526Z,77.51
2022-12-18T17:11:45.333Z,77.41
2022-12-18T17:14:18.395Z,77.57
2022-12-18T17:16:49.156Z,77.69
2022-12-18T17:19:22.941Z,77.60
2022-12-18T17:21:52.715Z,77.12
2022-12-18T17:24:21.658Z,77.24
2022-12-18T17:26:51.409Z,77.27
2022-12-18T17:29:21.436Z,77.19
2022-12-18T17:31:52.450Z,77.28
2022-12-18T17:34:21.850Z,77.20
2022-12-18T17:36:50.198Z,77.05
2022-12-18T17:39:21.579Z,77.08
2022-12-18T17:41:51.506Z,76.84
2022-12-18T17:44:20.396Z,77.17
2022-12-18T17:46:48.800Z,76.98
2022-12-18T17:49:17.088Z,77.08
2022-12-18T17:51:45.589Z,76.58
2022-12-18T17:54:14.154Z,76.84
2022-12-18T17:56:42.427Z,76.70
2022-12-18T17:59:15.192Z,76.73
2022-12-18T18:01:45.250Z,76.66
2022-12-18T18:04:16.692Z,76.62
2022-12-18T18:06:44.957Z,76.63
2022-12-18T18:09:16.921Z,76.54
2022-12-18T18:11:59.752Z,76.48
2022-12-18T18:14:29.727Z,76.46
2022-12-18T18:16:59.194Z,76.27
2022-12-18T18:19:34.118Z,76.41
2022-12-18T18:22:03.168Z,76.08
2022-12-18T18:24:33.159Z,76.40
2022-12-18T18:27:01.642Z,76.23
2022-12-18T18:29:31.774Z,76.36
2022-12-18T18:32:00.571Z,76.44
2022-12-18T18:34:32.303Z,76.59
2022-12-18T18:37:01.101Z,76.10
2022-12-18T18:39:29.736Z,76.19
2022-12-18T18:41:58.101Z,76.16
2022-12-18T18:44:26.638Z,76.17
2022-12-18T18:46:57.746Z,75.99
2022-12-18T18:49:27.754Z,76.18
2022-12-18T18:51:57.631Z,75.79
2022-12-18T18:54:26.621Z,75.94
2022-12-18T18:59:43.769Z,75.56
2022-12-18T19:02:15.236Z,75.86
2022-12-18T19:04:46.129Z,75.73
2022-12-18T19:07:29.714Z,75.84
2022-12-18T19:10:04.924Z,76.21
2022-12-18T19:12:52.361Z,75.54
2022-12-18T19:15:21.561Z,75.71
2022-12-18T19:17:51.366Z,75.24
2022-12-18T19:20:19.830Z,75.74
2022-12-18T19:22:54.836Z,75.56
2022-12-18T19:25:29.932Z,75.33
2022-12-18T19:28:15.849Z,75.41
2022-12-18T19:30:52.533Z,75.32
2022-12-18T19:33:43.323Z,75.54
2022-12-18T19:36:15.910Z,75.60
2022-12-18T19:38:45.362Z,75.32
2022-12-18T19:41:16.685Z,75.44
2022-12-18T19:43:46.560Z,75.12
2022-12-18T19:46:18.125Z,75.07
2022-12-18T19:48:48.659Z,74.96
2022-12-18T19:51:20.302Z,74.98
2022-12-18T19:53:50.587Z,75.24
2022-12-18T19:56:25.504Z,75.02
2022-12-18T19:58:55.219Z,74.62
2022-12-18T20:01:25.981Z,74.90
2022-12-18T20:03:57.588Z,74.99
2022-12-18T20:06:30.045Z,74.78
2022-12-18T20:09:01.380Z,74.67
2022-12-18T20:11:30.574Z,74.43
2022-12-18T20:13:59.735Z,74.78
2022-12-18T20:16:28.146Z,74.21
2022-12-18T20:18:58.266Z,74.59
2022-12-18T20:21:26.961Z,74.17
2022-12-18T20:23:55.765Z,73.90
2022-12-18T20:26:24.848Z,74.40
2022-12-18T20:28:53.722Z,74.23
2022-12-18T20:31:22.324Z,74.43
2022-12-18T20:33:52.104Z,74.28
2022-12-18T20:36:24.722Z,74.31
2022-12-18T20:38:59.256Z,74.37
2022-12-18T20:41:35.209Z,74.00
2022-12-18T20:44:10.422Z,74.33
2022-12-18T20:46:51.862Z,74.25
2022-12-18T20:49:20.432Z,74.66
2022-12-18T20:51:53.517Z,73.54
2022-12-18T20:54:22.855Z,73.75
2022-12-18T20:56:51.674Z,74.00
2022-12-18T20:59:20.387Z,74.12
2022-12-18T21:14:59.514Z,73.72
2022-12-18T21:17:28.171Z,73.75
2022-12-18T21:19:57.672Z,73.85
2022-12-18T21:22:26.483Z,73.78
2022-12-18T21:24:54.739Z,74.55
2022-12-18T21:27:22.962Z,73.90
2022-12-18T21:29:52.346Z,73.48
2022-12-18T21:32:22.370Z,74.12
2022-12-18T21:34:53.140Z,73.54
2022-12-18T21:37:21.358Z,73.51
2022-12-18T21:39:49.755Z,73.87
2022-12-18T21:42:35.527Z,73.52
2022-12-18T21:45:03.976Z,74.14
2022-12-18T21:47:33.659Z,74.30
2022-12-18T21:50:01.890Z,74.55
2022-12-18T21:52:32.603Z,74.00
2022-12-18T22:04:55.647Z,73.81
2022-12-18T22:07:24.038Z,74.28
2022-12-18T22:09:52.233Z,74.05
2022-12-18T22:12:35.462Z,74.37
2022-12-18T22:15:05.816Z,73.86
2022-12-18T22:17:34.110Z,74.58
2022-12-18T22:20:03.737Z,74.23
2022-12-18T22:22:31.965Z,74.85
2022-12-18T22:25:00.152Z,74.56
2022-12-18T22:27:28.368Z,74.75
2022-12-18T22:30:04.550Z,73.97
2022-12-18T22:32:33.880Z,73.75
2022-12-18T22:35:09.454Z,74.69
2022-12-18T22:37:41.109Z,74.81
2022-12-18T22:40:19.286Z,74.65
2022-12-18T22:42:52.643Z,74.96
2022-12-18T22:45:24.028Z,74.86
2022-12-18T22:48:11.493Z,74.56
2022-12-18T22:50:59.546Z,74.61
2022-12-18T22:53:54.104Z,75.19
2022-12-18T22:56:48.692Z,75.33
2022-12-18T22:59:42.738Z,74.89
2022-12-18T23:02:31.847Z,75.09
2022-12-18T23:05:25.912Z,75.54
2022-12-18T23:08:11.241Z,75.75
2022-12-18T23:10:57.986Z,75.66
2022-12-18T23:13:44.377Z,75.52
2022-12-18T23:16:30.291Z,76.44
2022-12-18T23:19:13.723Z,76.77
2022-12-18T23:21:57.775Z,76.80
2022-12-18T23:24:39.431Z,77.06
2022-12-18T23:27:13.953Z,76.54
2022-12-18T23:29:52.131Z,76.92
2022-12-18T23:32:38.229Z,76.79
2022-12-18T23:35:16.693Z,77.24
2022-12-18T23:38:06.027Z,77.70
2022-12-18T23:40:46.247Z,77.04
2022-12-18T23:43:30.995Z,78.19
2022-12-18T23:46:30.179Z,77.95
2022-12-18T23:49:11.934Z,77.84
2022-12-18T23:51:55.272Z,78.49
2022-12-18T23:54:34.617Z,78.27
2022-12-18T23:57:15.169Z,78.16
2022-12-18T23:59:54.409Z,78.81
